Time;durP1;ratioP1;P1;durP2;ratioP2;P2;SDS_P1;SDS_P2;PMS_P1;PMS_P2;Temp;Humidity;BMP_temperature;BMP_pressure;BME280_temperature;BME280_humidity;BME280_pressure;Samples;Min_cycle;Max_cycle;Signal;HPM_P1;HPM_P2
2023/03/26 00:01:37;;;;;;;20.70;3.63;;;9.30;99.90;;;;;;5033105;28;20160;-54
2023/03/26 00:04:05;;;;;;;14.13;3.33;;;9.30;99.90;;;;;;5033276;28;20171;-53
2023/03/26 00:06:36;;;;;;;18.38;4.18;;;9.30;99.90;;;;;;5033258;28;20242;-53
2023/03/26 00:09:14;;;;;;;20.92;3.80;;;9.30;99.90;;;;;;5032674;28;20222;-54
2023/03/26 00:11:41;;;;;;;17.15;3.75;;;9.30;99.90;;;;;;5032936;28;20514;-54
2023/03/26 00:14:08;;;;;;;24.30;4.28;;;9.30;99.90;;;;;;5032657;28;20727;-53
2023/03/26 00:16:34;;;;;;;25.23;4.07;;;9.30;99.90;;;;;;5032961;28;20171;-54
2023/03/26 00:19:01;;;;;;;20.05;3.15;;;9.30;99.90;;;;;;5031593;28;20203;-53
2023/03/26 00:21:29;;;;;;;17.58;3.95;;;9.30;99.90;;;;;;5030778;28;20686;-54
2023/03/26 00:24:09;;;;;;;14.73;3.30;;;9.30;99.90;;;;;;5031563;28;20164;-54
2023/03/26 00:26:37;;;;;;;19.42;3.78;;;9.30;99.90;;;;;;5032189;28;20572;-52
2023/03/26 00:29:05;;;;;;;21.25;4.13;;;9.30;99.90;;;;;;5032155;28;20203;-53
2023/03/26 00:31:31;;;;;;;17.10;3.72;;;9.30;99.90;;;;;;5032102;28;20213;-53
2023/03/26 00:34:01;;;;;;;19.08;3.90;;;;;;;;;;5031426;28;20662;-53
2023/03/26 00:36:27;;;;;;;14.13;3.35;;;9.30;99.90;;;;;;5031463;28;20175;-54
2023/03/26 00:38:53;;;;;;;11.63;3.50;;;9.30;99.90;;;;;;5031517;28;20167;-53
2023/03/26 00:41:24;;;;;;;18.40;2.92;;;9.20;99.90;;;;;;5031550;28;20518;-53
2023/03/26 00:43:55;;;;;;;15.13;4.18;;;9.20;99.90;;;;;;5031468;28;20222;-54
2023/03/26 00:46:22;;;;;;;17.65;3.70;;;9.20;99.90;;;;;;5031536;28;20533;-54
2023/03/26 00:48:47;;;;;;;12.18;3.22;;;9.20;99.90;;;;;;5031062;28;20214;-54
2023/03/26 00:51:20;;;;;;;21.48;3.33;;;9.20;99.90;;;;;;5030107;28;20179;-53
2023/03/26 00:53:47;;;;;;;16.80;3.42;;;9.20;99.90;;;;;;5031332;28;20171;-53
2023/03/26 00:56:13;;;;;;;23.92;3.85;;;9.20;99.90;;;;;;5031321;28;20174;-54
2023/03/26 00:58:40;;;;;;;25.65;4.20;;;9.10;99.90;;;;;;5031555;28;20167;-53
2023/03/26 01:01:15;;;;;;;21.50;3.55;;;9.10;99.90;;;;;;5031511;28;20168;-53
2023/03/26 01:03:43;;;;;;;15.10;3.78;;;9.10;99.90;;;;;;5030751;28;20241;-53
2023/03/26 01:06:26;;;;;;;20.85;3.65;;;9.00;99.90;;;;;;5030781;28;20164;-54
2023/03/26 01:08:59;;;;;;;13.45;2.95;;;9.00;99.90;;;;;;5030500;28;20230;-54
2023/03/26 01:11:32;;;;;;;19.25;3.17;;;9.00;99.90;;;;;;5031192;28;20163;-54
2023/03/26 01:14:09;;;;;;;17.48;3.90;;;8.90;99.90;;;;;;5031172;28;20174;-54
2023/03/26 01:16:48;;;;;;;29.42;4.03;;;8.90;99.90;;;;;;5031086;28;20221;-54
2023/03/26 01:19:51;;;;;;;15.75;3.75;;;8.80;99.90;;;;;;5031039;28;20171;-53
2023/03/26 01:22:22;;;;;;;23.92;3.28;;;8.80;99.90;;;;;;5031167;28;20179;-54
2023/03/26 01:24:55;;;;;;;14.13;3.47;;;8.80;99.90;;;;;;5031076;28;20229;-54
2023/03/26 01:27:45;;;;;;;21.20;4.28;;;8.70;99.90;;;;;;5030828;28;20167;-54
2023/03/26 01:30:33;;;;;;;19.92;4.03;;;8.70;99.90;;;;;;5030932;28;20643;-54
2023/03/26 01:33:12;;;;;;;20.40;5.85;;;8.70;99.90;;;;;;5031275;28;20314;-54
2023/03/26 01:35:41;;;;;;;16.55;3.90;;;8.60;99.90;;;;;;5030608;28;20670;-54
2023/03/26 01:38:21;;;;;;;20.02;3.63;;;8.60;99.90;;;;;;5030642;28;20178;-53
2023/03/26 01:41:09;;;;;;;17.27;3.90;;;8.60;99.90;;;;;;5031008;28;20525;-51
2023/03/26 01:44:14;;;;;;;20.75;3.78;;;8.60;99.90;;;;;;5030762;28;20167;-50
2023/03/26 01:46:42;;;;;;;15.77;3.28;;;8.50;99.90;;;;;;5030596;28;20270;-49
2023/03/26 01:49:11;;;;;;;15.77;3.55;;;8.60;99.90;;;;;;5030579;28;20203;-53
2023/03/26 01:51:42;;;;;;;19.58;3.83;;;8.50;99.90;;;;;;5030159;28;20186;-53
2023/03/26 01:54:16;;;;;;;18.98;3.53;;;8.60;99.90;;;;;;5030703;28;20163;-53
2023/03/26 01:56:55;;;;;;;28.30;4.30;;;8.50;99.90;;;;;;5029039;28;20176;-53
2023/03/26 01:59:32;;;;;;;12.10;4.10;;;8.60;99.90;;;;;;5030398;28;20250;-50
2023/03/26 02:02:03;;;;;;;16.45;3.47;;;8.60;99.90;;;;;;5030321;28;20266;-52
2023/03/26 02:04:52;;;;;;;14.95;2.85;;;8.60;99.90;;;;;;5032850;28;20643;-50
2023/03/26 02:07:27;;;;;;;13.40;3.67;;;8.60;99.90;;;;;;5034604;28;20643;-50
2023/03/26 02:09:59;;;;;;;18.48;3.92;;;8.60;99.90;;;;;;5033206;28;20753;-46
2023/03/26 02:12:25;;;;;;;18.95;4.05;;;;;;;;;;5034540;28;20171;-52
2023/03/26 02:14:51;;;;;;;13.90;3.65;;;8.60;99.90;;;;;;5034882;28;20199;-54
2023/03/26 02:17:18;;;;;;;16.30;3.50;;;8.60;99.90;;;;;;5033530;28;20171;-54
2023/03/26 02:19:43;;;;;;;13.10;3.00;;;8.60;99.90;;;;;;5034687;28;20176;-54
2023/03/26 02:22:14;;;;;;;15.10;2.90;;;8.60;99.90;;;;;;5034395;28;20178;-52
2023/03/26 02:24:41;;;;;;;11.52;3.38;;;8.50;99.90;;;;;;5034546;28;20175;-53
2023/03/26 02:27:07;;;;;;;17.83;3.33;;;;;;;;;;5034241;28;20199;-53
2023/03/26 02:29:37;;;;;;;12.27;2.95;;;8.60;99.90;;;;;;5033963;28;20210;-53
2023/03/26 02:32:04;;;;;;;12.40;3.28;;;8.60;99.90;;;;;;5034244;28;20217;-52
2023/03/26 02:34:30;;;;;;;20.25;4.18;;;;;;;;;;5034550;28;20179;-54
2023/03/26 02:36:56;;;;;;;16.85;3.13;;;8.70;99.90;;;;;;5034170;28;20164;-54
2023/03/26 02:39:23;;;;;;;15.75;3.30;;;8.60;99.90;;;;;;5034405;28;20178;-52
2023/03/26 02:41:48;;;;;;;15.95;3.40;;;8.60;99.90;;;;;;5034057;28;20163;-52
2023/03/26 02:44:14;;;;;;;12.68;4.25;;;8.70;99.90;;;;;;5033997;28;20715;-54
2023/03/26 02:46:40;;;;;;;14.50;3.33;;;8.70;99.90;;;;;;5034074;28;20171;-53
2023/03/26 02:49:06;;;;;;;17.02;2.97;;;8.70;99.90;;;;;;5033712;28;20608;-45
2023/03/26 02:51:33;;;;;;;12.02;3.00;;;;;;;;;;5034211;28;20172;-45
2023/03/26 02:54:00;;;;;;;9.43;2.20;;;8.80;99.90;;;;;;5034468;28;20171;-52
2023/03/26 02:56:25;;;;;;;15.13;2.88;;;8.70;99.90;;;;;;5034046;28;20179;-52
2023/03/26 02:58:51;;;;;;;14.10;2.83;;;8.80;99.90;;;;;;5033799;28;20622;-45
2023/03/26 03:01:17;;;;;;;10.20;3.10;;;8.80;99.90;;;;;;5033279;28;20180;-46
2023/03/26 03:03:42;;;;;;;13.27;2.88;;;8.80;99.90;;;;;;5033888;28;20167;-46
2023/03/26 03:06:08;;;;;;;10.48;3.08;;;8.80;99.90;;;;;;5033763;28;20167;-48
2023/03/26 03:08:34;;;;;;;12.48;2.45;;;8.80;99.90;;;;;;5033183;28;20223;-51
2023/03/26 03:11:07;;;;;;;13.32;2.92;;;8.80;99.90;;;;;;5032823;28;20176;-45
2023/03/26 03:13:33;;;;;;;13.77;3.05;;;8.80;99.90;;;;;;5030964;28;20599;-45
2023/03/26 03:15:59;;;;;;;16.30;3.63;;;;;;;;;;5033938;28;20164;-52
2023/03/26 03:18:25;;;;;;;13.05;2.88;;;;;;;;;;5033418;28;20655;-47
2023/03/26 03:20:52;;;;;;;13.63;3.33;;;8.80;99.90;;;;;;5033539;28;20179;-45
2023/03/26 03:23:19;;;;;;;13.43;3.28;;;8.80;99.90;;;;;;5033547;28;20172;-45
2023/03/26 03:25:45;;;;;;;9.18;3.38;;;8.80;99.90;;;;;;5033391;28;20179;-52
2023/03/26 03:28:12;;;;;;;6.85;2.45;;;;;;;;;;5032967;28;20195;-53
2023/03/26 03:30:38;;;;;;;10.02;3.75;;;8.80;99.90;;;;;;5031832;28;20171;-53
2023/03/26 03:33:05;;;;;;;16.92;3.30;;;8.80;99.90;;;;;;5031691;28;20245;-53
2023/03/26 03:35:32;;;;;;;9.57;3.42;;;8.90;99.90;;;;;;5033265;28;20273;-54
2023/03/26 03:37:58;;;;;;;11.00;2.72;;;8.80;99.90;;;;;;5033605;28;20555;-54
2023/03/26 03:40:24;;;;;;;11.63;2.70;;;8.80;99.90;;;;;;5032906;28;20175;-54
2023/03/26 03:42:50;;;;;;;13.43;2.92;;;8.80;99.90;;;;;;5032774;28;20234;-54
2023/03/26 03:45:16;;;;;;;10.10;2.78;;;;;;;;;;5033058;28;20163;-53
2023/03/26 03:47:42;;;;;;;10.45;2.53;;;8.90;99.90;;;;;;5032916;28;20164;-53
2023/03/26 03:50:08;;;;;;;12.18;3.00;;;8.90;99.90;;;;;;5032736;28;20310;-53
2023/03/26 03:52:34;;;;;;;17.73;2.70;;;8.80;99.90;;;;;;5032674;28;20639;-53
2023/03/26 03:55:00;;;;;;;14.05;2.38;;;8.90;99.90;;;;;;5033686;28;20178;-52
2023/03/26 03:57:26;;;;;;;14.52;2.40;;;8.90;99.90;;;;;;5032553;28;20167;-53
2023/03/26 03:59:52;;;;;;;12.43;3.15;;;8.90;99.90;;;;;;5032648;28;20570;-54
2023/03/26 04:02:25;;;;;;;18.77;3.75;;;8.90;99.90;;;;;;5032517;28;20250;-53
2023/03/26 04:04:56;;;;;;;14.60;2.70;;;8.90;99.90;;;;;;5032698;28;20218;-53
2023/03/26 04:07:26;;;;;;;7.50;2.28;;;8.90;99.90;;;;;;5032457;28;20186;-55
2023/03/26 04:09:52;;;;;;;7.78;3.15;;;8.90;99.90;;;;;;5031825;28;20279;-53
2023/03/26 04:12:18;;;;;;;15.20;3.30;;;8.90;99.90;;;;;;5032021;28;20262;-53
2023/03/26 04:14:43;;;;;;;12.18;2.72;;;8.90;99.90;;;;;;5032397;28;20171;-53
2023/03/26 04:17:12;;;;;;;8.95;2.58;;;;;;;;;;5032303;28;20527;-52
2023/03/26 04:19:38;;;;;;;14.07;4.05;;;8.80;99.90;;;;;;5032262;28;20182;-52
2023/03/26 04:22:04;;;;;;;17.33;3.90;;;8.80;99.90;;;;;;5032144;28;20233;-53
2023/03/26 04:24:32;;;;;;;22.55;9.05;;;8.90;99.90;;;;;;5032390;28;20163;-53
2023/03/26 04:26:59;;;;;;;15.57;5.50;;;8.90;99.90;;;;;;5032731;28;20179;-53
2023/03/26 04:29:26;;;;;;;26.65;10.15;;;8.80;99.90;;;;;;5032253;28;20277;-54
2023/03/26 04:31:57;;;;;;;10.07;3.45;;;8.80;99.90;;;;;;5032205;28;20166;-49
2023/03/26 04:34:24;;;;;;;9.13;2.80;;;8.70;99.90;;;;;;5031997;28;20635;-48
2023/03/26 04:36:53;;;;;;;13.30;3.22;;;8.70;99.90;;;;;;5031875;28;20175;-46
2023/03/26 04:39:20;;;;;;;14.05;2.92;;;8.60;99.90;;;;;;5031600;28;20666;-50
2023/03/26 04:41:47;;;;;;;8.88;2.80;;;8.60;99.90;;;;;;5031451;28;20726;-45
2023/03/26 04:44:15;;;;;;;11.20;3.88;;;8.60;99.90;;;;;;5031953;28;20262;-53
2023/03/26 04:46:42;;;;;;;13.77;5.00;;;8.60;99.90;;;;;;5030578;28;20198;-53
2023/03/26 04:49:09;;;;;;;16.35;7.38;;;;;;;;;;5031666;28;20230;-53
2023/03/26 04:51:37;;;;;;;13.38;4.15;;;8.50;99.90;;;;;;5032113;28;20191;-52
2023/03/26 04:54:05;;;;;;;15.38;5.18;;;8.50;99.90;;;;;;5030940;28;20179;-54
2023/03/26 04:56:55;;;;;;;18.65;4.32;;;8.50;99.90;;;;;;5032224;28;20182;-52
2023/03/26 04:59:29;;;;;;;11.07;2.80;;;8.50;99.90;;;;;;5032029;28;20269;-54
2023/03/26 05:01:56;;;;;;;9.52;2.80;;;8.60;99.90;;;;;;5031516;28;20199;-54
2023/03/26 05:04:23;;;;;;;13.90;2.40;;;8.60;99.90;;;;;;5031451;28;20194;-54
2023/03/26 05:06:49;;;;;;;16.25;3.05;;;8.70;99.90;;;;;;5031459;28;20246;-54
2023/03/26 05:09:15;;;;;;;10.32;3.75;;;8.60;99.90;;;;;;5031320;28;20711;-54
2023/03/26 05:11:40;;;;;;;12.75;3.15;;;8.60;99.90;;;;;;5030089;28;20182;-48
2023/03/26 05:14:07;;;;;;;9.23;2.45;;;8.60;99.90;;;;;;5031436;28;20169;-45
2023/03/26 05:16:33;;;;;;;10.90;2.80;;;8.70;99.90;;;;;;5031295;28;20202;-44
2023/03/26 05:18:59;;;;;;;13.23;3.10;;;;;;;;;;5031593;28;20221;-46
2023/03/26 05:21:25;;;;;;;14.30;3.28;;;8.70;99.90;;;;;;5031041;28;20258;-45
2023/03/26 05:23:50;;;;;;;16.48;3.50;;;;;;;;;;5031256;28;20179;-48
2023/03/26 05:26:17;;;;;;;18.02;6.32;;;8.60;99.90;;;;;;5031126;28;20167;-48
2023/03/26 05:28:42;;;;;;;15.45;6.43;;;8.60;99.90;;;;;;5030948;28;20210;-45
2023/03/26 05:31:09;;;;;;;17.77;5.93;;;8.60;99.90;;;;;;5031425;28;20167;-45
2023/03/26 05:33:35;;;;;;;13.07;5.90;;;;;;;;;;5031307;28;20178;-45
2023/03/26 05:36:04;;;;;;;20.05;5.78;;;8.60;99.90;;;;;;5031671;28;20194;-44
2023/03/26 05:38:30;;;;;;;15.60;6.45;;;8.50;99.90;;;;;;5037642;28;20169;-45
2023/03/26 05:41:00;;;;;;;18.65;6.63;;;8.50;99.90;;;;;;5037737;28;20218;-45
2023/03/26 05:43:27;;;;;;;17.05;7.13;;;;;;;;;;5038227;28;20254;-45
2023/03/26 05:45:53;;;;;;;15.02;7.03;;;;;;;;;;5037608;28;20174;-46
2023/03/26 05:48:20;;;;;;;19.10;7.80;;;8.60;99.90;;;;;;5037537;28;20600;-44
2023/03/26 05:50:49;;;;;;;35.17;16.65;;;8.60;99.90;;;;;;5037554;28;20167;-45
2023/03/26 05:53:15;;;;;;;23.98;11.63;;;8.60;99.90;;;;;;5037546;28;20164;-45
2023/03/26 05:55:44;;;;;;;24.88;11.27;;;8.60;99.90;;;;;;5037563;28;20229;-46
2023/03/26 05:58:11;;;;;;;134.05;62.15;;;8.60;99.90;;;;;;5037458;28;20551;-45
2023/03/26 06:00:37;;;;;;;19.85;8.20;;;8.60;99.90;;;;;;5037268;28;20167;-45
2023/03/26 06:03:04;;;;;;;17.02;6.97;;;8.60;99.90;;;;;;5037391;28;20156;-44
2023/03/26 06:05:38;;;;;;;14.73;4.45;;;8.60;99.90;;;;;;5037830;28;20247;-45
2023/03/26 06:08:04;;;;;;;41.67;21.60;;;8.60;99.90;;;;;;5037123;28;20214;-51
2023/03/26 06:10:30;;;;;;;33.72;19.70;;;;;;;;;;5037704;28;20531;-52
2023/03/26 06:12:56;;;;;;;10.60;3.60;;;8.50;99.90;;;;;;5038059;28;20174;-44
2023/03/26 06:15:22;;;;;;;11.88;3.85;;;;;;;;;;5037154;28;20171;-45
2023/03/26 06:17:48;;;;;;;15.02;3.97;;;8.60;99.90;;;;;;5037080;28;20650;-45
2023/03/26 06:20:14;;;;;;;9.27;3.13;;;8.50;99.90;;;;;;5037197;28;20160;-47
2023/03/26 06:22:40;;;;;;;10.48;4.50;;;;;;;;;;5036311;28;20171;-46
2023/03/26 06:25:06;;;;;;;12.48;3.33;;;8.50;99.90;;;;;;5037307;28;20209;-48
2023/03/26 06:27:32;;;;;;;8.00;2.55;;;8.50;99.90;;;;;;5037191;28;20175;-45
2023/03/26 06:29:57;;;;;;;12.73;3.08;;;8.60;99.90;;;;;;5037020;28;20207;-45
2023/03/26 06:32:23;;;;;;;7.20;2.22;;;8.50;99.90;;;;;;5036852;28;20191;-45
2023/03/26 06:34:49;;;;;;;7.60;2.58;;;;;;;;;;5037033;28;20508;-45
2023/03/26 06:37:15;;;;;;;9.02;2.20;;;8.50;99.90;;;;;;5037329;28;20680;-45
2023/03/26 06:39:41;;;;;;;4.75;2.00;;;8.50;99.90;;;;;;5037169;28;20228;-46
2023/03/26 06:42:07;;;;;;;8.90;2.63;;;8.50;99.90;;;;;;5037170;28;20176;-48
2023/03/26 06:44:33;;;;;;;7.30;2.80;;;;;;;;;;5037104;28;20176;-45
2023/03/26 06:46:58;;;;;;;8.23;3.75;;;8.60;99.90;;;;;;5037459;28;20294;-47
2023/03/26 06:49:24;;;;;;;6.82;2.83;;;8.60;99.90;;;;;;5034521;28;20218;-52
2023/03/26 06:51:50;;;;;;;11.02;3.53;;;;;;;;;;5033684;28;20636;-45
2023/03/26 06:54:15;;;;;;;7.80;2.55;;;8.70;99.90;;;;;;5034063;28;20261;-45
2023/03/26 06:56:41;;;;;;;10.68;2.88;;;8.70;99.90;;;;;;5033872;28;20247;-45
2023/03/26 06:59:07;;;;;;;8.10;2.28;;;8.70;99.90;;;;;;5032413;28;20195;-45
2023/03/26 07:01:33;;;;;;;8.82;2.63;;;8.70;99.90;;;;;;5033476;28;20669;-48
2023/03/26 07:03:59;;;;;;;6.32;2.35;;;;;;;;;;5034018;28;20171;-50
2023/03/26 07:06:25;;;;;;;8.75;3.10;;;;;;;;;;5033639;28;20175;-49
2023/03/26 07:08:51;;;;;;;8.15;3.25;;;8.80;99.90;;;;;;5032220;28;20227;-45
2023/03/26 07:11:19;;;;;;;8.00;3.20;;;;;;;;;;5032055;28;20588;-52
2023/03/26 07:13:48;;;;;;;13.45;4.13;;;;;;;;;;5033795;28;20184;-45
2023/03/26 07:16:14;;;;;;;10.90;3.08;;;8.80;99.90;;;;;;5033597;28;20174;-54
2023/03/26 07:18:39;;;;;;;8.75;3.33;;;8.80;99.90;;;;;;5033401;28;20223;-54
2023/03/26 07:21:06;;;;;;;7.47;3.20;;;8.70;99.90;;;;;;5033467;28;20164;-53
2023/03/26 07:23:31;;;;;;;13.20;3.30;;;8.70;99.90;;;;;;5033651;28;20225;-53
2023/03/26 07:25:57;;;;;;;11.77;3.55;;;8.70;99.90;;;;;;5032515;28;20171;-53
2023/03/26 07:28:47;;;;;;;8.52;3.50;;;8.80;99.90;;;;;;5033134;28;20187;-50
2023/03/26 07:31:25;;;;;;;12.05;3.47;;;8.80;99.90;;;;;;5032614;28;20266;-53
2023/03/26 07:34:16;;;;;;;14.77;5.10;;;8.80;99.90;;;;;;5033285;28;20186;-49
2023/03/26 07:36:56;;;;;;;12.48;4.85;;;8.80;99.90;;;;;;5032716;28;20207;-51
2023/03/26 07:39:48;;;;;;;12.45;4.05;;;8.80;99.90;;;;;;5032746;28;20206;-53
2023/03/26 07:42:48;;;;;;;11.85;3.78;;;8.80;99.90;;;;;;5032079;28;20313;-54
2023/03/26 07:45:35;;;;;;;13.93;4.40;;;8.70;99.90;;;;;;5032818;28;20171;-54
2023/03/26 07:48:01;;;;;;;12.75;2.83;;;8.60;99.90;;;;;;5032889;28;20376;-48
2023/03/26 07:50:29;;;;;;;9.55;3.10;;;8.60;99.90;;;;;;5033567;28;20194;-53
2023/03/26 07:52:55;;;;;;;15.95;3.63;;;8.60;99.90;;;;;;5033080;28;20168;-52
2023/03/26 07:55:21;;;;;;;9.20;3.72;;;8.60;99.90;;;;;;5032720;28;20174;-52
2023/03/26 07:58:18;;;;;;;9.70;3.40;;;8.70;99.90;;;;;;5032730;28;20274;-46
2023/03/26 08:00:51;;;;;;;12.73;3.38;;;8.60;99.90;;;;;;5031953;28;20170;-47
2023/03/26 08:03:29;;;;;;;10.95;3.75;;;8.70;99.90;;;;;;5032533;28;20163;-50
2023/03/26 08:06:16;;;;;;;11.68;3.58;;;8.60;99.90;;;;;;5032512;28;20620;-51
2023/03/26 08:09:16;;;;;;;12.80;3.40;;;8.60;99.90;;;;;;5031842;28;20626;-50
2023/03/26 08:11:57;;;;;;;12.68;3.75;;;8.60;99.90;;;;;;5029147;28;20549;-50
2023/03/26 08:14:42;;;;;;;17.65;3.97;;;8.60;99.90;;;;;;5032746;28;20171;-54
2023/03/26 08:17:15;;;;;;;10.05;3.45;;;8.60;99.90;;;;;;5032417;28;20564;-52
2023/03/26 08:19:50;;;;;;;14.50;3.72;;;8.60;99.90;;;;;;5032344;28;20229;-47
2023/03/26 08:22:25;;;;;;;10.00;3.60;;;8.60;99.90;;;;;;5032757;28;20246;-54
2023/03/26 08:25:12;;;;;;;14.07;3.90;;;8.60;99.90;;;;;;5031507;28;20229;-53
2023/03/26 08:27:42;;;;;;;11.85;3.63;;;8.70;99.90;;;;;;5030405;28;20168;-53
2023/03/26 08:30:16;;;;;;;9.18;3.92;;;8.60;99.90;;;;;;5032373;28;20313;-53
2023/03/26 08:32:44;;;;;;;11.80;3.90;;;8.70;99.90;;;;;;5032463;28;20159;-52
2023/03/26 08:35:12;;;;;;;11.13;3.55;;;8.70;99.90;;;;;;5032246;28;20164;-53
2023/03/26 08:37:38;;;;;;;14.60;4.00;;;8.70;99.90;;;;;;5031715;28;20217;-51
2023/03/26 08:40:04;;;;;;;11.93;3.67;;;8.70;99.90;;;;;;5032477;28;20175;-53
2023/03/26 08:43:07;;;;;;;9.02;3.35;;;8.80;99.90;;;;;;5032192;28;20180;-46
2023/03/26 08:45:56;;;;;;;9.98;3.42;;;8.70;99.90;;;;;;5032545;28;20267;-51
2023/03/26 08:48:50;;;;;;;14.80;4.50;;;8.80;99.90;;;;;;5031930;28;20699;-48
2023/03/26 08:51:26;;;;;;;12.52;3.63;;;8.80;99.90;;;;;;5032088;28;20172;-51
2023/03/26 08:54:24;;;;;;;10.52;3.83;;;8.80;99.90;;;;;;5031918;28;20172;-53
2023/03/26 08:56:52;;;;;;;7.75;3.67;;;8.90;99.90;;;;;;5032313;28;20174;-47
2023/03/26 08:59:53;;;;;;;6.10;3.03;;;8.80;99.90;;;;;;5031771;28;20186;-50
2023/03/26 09:02:43;;;;;;;9.98;3.63;;;8.80;99.90;;;;;;5030013;28;20203;-47
2023/03/26 09:05:09;;;;;;;11.38;3.92;;;8.80;99.90;;;;;;5032003;28;20170;-46
2023/03/26 09:08:09;;;;;;;10.23;3.13;;;8.80;99.90;;;;;;5030306;28;20762;-53
2023/03/26 09:10:50;;;;;;;10.15;3.30;;;8.80;99.90;;;;;;5031689;28;20608;-46
2023/03/26 09:13:29;;;;;;;11.65;3.42;;;8.80;99.90;;;;;;5031154;28;20198;-48
2023/03/26 09:16:17;;;;;;;8.10;2.67;;;8.80;99.90;;;;;;5031930;28;20207;-48
2023/03/26 09:19:23;;;;;;;9.10;2.85;;;8.90;99.90;;;;;;5031596;28;20174;-49
2023/03/26 09:22:25;;;;;;;8.85;2.75;;;8.80;99.90;;;;;;5031420;28;20539;-45
2023/03/26 09:25:12;;;;;;;5.10;2.42;;;8.90;99.90;;;;;;5031550;28;20649;-45
2023/03/26 09:27:45;;;;;;;11.48;2.80;;;8.80;99.90;;;;;;5031472;28;20167;-45
2023/03/26 09:30:29;;;;;;;4.97;2.33;;;8.80;99.90;;;;;;5031396;28;20565;-45
2023/03/26 09:33:25;;;;;;;5.57;2.15;;;8.70;99.90;;;;;;5029572;28;20174;-46
2023/03/26 09:36:00;;;;;;;5.97;2.10;;;8.70;99.90;;;;;;5030151;28;20159;-48
2023/03/26 09:38:40;;;;;;;7.18;2.00;;;8.70;99.90;;;;;;5030624;28;20163;-45
2023/03/26 09:41:24;;;;;;;4.60;2.17;;;8.90;99.90;;;;;;5030006;28;20202;-45
2023/03/26 09:44:08;;;;;;;8.35;2.00;;;8.90;99.90;;;;;;5029972;28;20210;-44
2023/03/26 09:46:52;;;;;;;4.57;1.80;;;8.90;99.90;;;;;;5030219;28;20533;-44
2023/03/26 09:49:46;;;;;;;6.05;1.63;;;8.90;99.90;;;;;;5029741;28;20560;-44
2023/03/26 09:52:31;;;;;;;5.60;1.80;;;8.90;99.90;;;;;;5030065;28;20187;-51
2023/03/26 09:55:21;;;;;;;2.28;1.40;;;8.90;99.90;;;;;;5029350;28;20164;-54
2023/03/26 09:58:03;;;;;;;3.63;1.40;;;9.00;99.90;;;;;;5029760;28;20167;-44
2023/03/26 10:00:46;;;;;;;2.97;1.45;;;9.10;99.90;;;;;;5030045;28;20167;-45
2023/03/26 10:03:27;;;;;;;3.13;1.50;;;9.10;99.90;;;;;;5029218;28;20186;-45
2023/03/26 10:06:12;;;;;;;4.55;1.92;;;9.30;99.90;;;;;;5029882;28;20573;-49
2023/03/26 10:09:26;;;;;;;4.68;2.10;;;9.20;99.90;;;;;;5029351;28;20219;-45
2023/03/26 10:12:05;;;;;;;4.57;1.70;;;9.30;99.90;;;;;;5026825;28;20208;-44
2023/03/26 10:14:42;;;;;;;4.45;1.55;;;9.30;99.90;;;;;;5029570;28;20191;-44
2023/03/26 10:17:27;;;;;;;3.65;2.00;;;9.40;99.90;;;;;;5011704;28;20172;-45
2023/03/26 10:20:08;;;;;;;3.90;1.80;;;9.40;99.90;;;;;;5029519;28;20225;-46
2023/03/26 10:23:10;;;;;;;4.47;1.58;;;9.50;99.90;;;;;;5030858;28;20581;-45
2023/03/26 10:25:58;;;;;;;3.88;1.48;;;9.50;99.90;;;;;;5034273;28;20171;-54
2023/03/26 10:28:44;;;;;;;6.10;2.33;;;9.50;99.90;;;;;;5034370;28;20168;-47
2023/03/26 10:31:47;;;;;;;5.05;2.50;;;9.50;99.90;;;;;;5034808;28;20647;-52
2023/03/26 10:34:35;;;;;;;5.43;2.00;;;9.50;99.90;;;;;;5034754;28;20206;-45
2023/03/26 10:37:26;;;;;;;2.53;1.92;;;9.30;99.90;;;;;;5034786;28;20218;-45
2023/03/26 10:40:18;;;;;;;3.60;1.75;;;9.30;99.90;;;;;;5034697;28;20171;-47
2023/03/26 10:43:12;;;;;;;4.75;1.83;;;9.30;99.90;;;;;;5019214;28;20179;-44
2023/03/26 10:46:03;;;;;;;4.65;1.70;;;9.30;99.90;;;;;;5034439;28;20209;-44
2023/03/26 10:49:04;;;;;;;3.25;1.67;;;12.40;99.90;;;;;;5034876;28;20758;-47
2023/03/26 10:51:30;;;;;;;2.00;1.45;;;;;;;;;;5032775;28;20187;-50
2023/03/26 10:54:30;;;;;;;4.65;2.08;;;9.70;99.90;;;;;;5033960;28;20643;-52
2023/03/26 10:56:56;;;;;;;5.30;2.03;;;9.80;99.90;;;;;;5033493;28;20177;-51
2023/03/26 10:59:25;;;;;;;3.90;1.60;;;9.70;99.90;;;;;;5034652;28;20175;-51
2023/03/26 11:02:23;;;;;;;4.68;1.65;;;9.70;99.90;;;;;;5033207;28;20578;-55
2023/03/26 11:04:59;;;;;;;3.05;1.50;;;9.90;99.90;;;;;;5016207;28;20650;-54
2023/03/26 11:07:35;;;;;;;4.15;2.10;;;9.90;99.90;;;;;;5032995;28;20167;-57
2023/03/26 11:10:20;;;;;;;2.72;1.65;;;10.10;99.90;;;;;;5032800;28;20240;-54
2023/03/26 11:12:57;;;;;;;6.32;2.25;;;10.10;99.90;;;;;;5032611;28;20173;-54
2023/03/26 11:15:34;;;;;;;6.38;2.45;;;10.10;99.90;;;;;;5033022;28;20221;-54
2023/03/26 11:18:00;;;;;;;3.03;2.25;;;;;;;;;;5034150;28;20166;-54
2023/03/26 11:20:35;;;;;;;4.57;1.98;;;10.00;99.90;;;;;;5033115;28;20167;-54
2023/03/26 11:23:47;;;;;;;5.10;1.65;;;10.00;99.90;;;;;;5033300;28;20175;-52
2023/03/26 11:26:27;;;;;;;4.28;1.85;;;10.00;99.90;;;;;;5033328;28;20187;-54
2023/03/26 11:29:22;;;;;;;3.50;1.63;;;9.80;99.90;;;;;;5033768;28;20261;-51
2023/03/26 11:32:07;;;;;;;5.05;2.03;;;9.90;99.90;;;;;;5033785;28;20167;-53
2023/03/26 11:34:42;;;;;;;4.28;1.90;;;9.90;99.90;;;;;;5033115;28;20194;-53
2023/03/26 11:37:25;;;;;;;5.53;2.30;;;9.70;99.90;;;;;;5033650;28;20261;-49
2023/03/26 11:39:55;;;;;;;3.75;2.40;;;9.90;99.90;;;;;;5033644;28;20250;-52
2023/03/26 11:42:23;;;;;;;6.03;2.28;;;10.00;99.90;;;;;;5033363;28;20631;-51
2023/03/26 11:44:53;;;;;;;4.15;2.47;;;10.00;99.90;;;;;;5033495;28;20639;-53
2023/03/26 11:47:23;;;;;;;6.47;2.47;;;9.90;99.90;;;;;;5033515;28;20632;-49
2023/03/26 11:49:52;;;;;;;5.75;2.30;;;9.90;99.90;;;;;;5031900;28;20860;-53
2023/03/26 11:52:17;;;;;;;5.65;2.10;;;9.90;99.90;;;;;;5033096;28;20182;-54
2023/03/26 11:54:47;;;;;;;4.30;1.70;;;9.90;99.90;;;;;;5033041;28;20183;-53
2023/03/26 11:57:21;;;;;;;3.60;2.22;;;9.90;99.90;;;;;;5033467;28;20175;-54
2023/03/26 11:59:55;;;;;;;3.50;2.00;;;9.90;99.90;;;;;;5033697;28;20175;-53
2023/03/26 12:02:23;;;;;;;4.65;2.00;;;9.80;99.90;;;;;;5033152;28;20163;-54
2023/03/26 12:05:01;;;;;;;4.13;2.05;;;9.90;99.90;;;;;;5033122;28;20168;-54
2023/03/26 12:07:32;;;;;;;2.28;1.60;;;9.80;99.90;;;;;;5033191;28;20167;-54
2023/03/26 12:09:59;;;;;;;4.68;1.80;;;9.70;99.90;;;;;;5033380;28;20230;-54
2023/03/26 12:12:36;;;;;;;2.80;1.60;;;9.60;99.90;;;;;;5033343;28;20701;-54
2023/03/26 12:15:02;;;;;;;2.88;1.85;;;9.60;99.90;;;;;;5032440;28;20190;-54
2023/03/26 12:17:32;;;;;;;3.28;1.98;;;9.60;99.90;;;;;;5032809;28;20198;-53
2023/03/26 12:19:59;;;;;;;3.83;2.00;;;9.60;99.90;;;;;;5033419;28;20175;-54
2023/03/26 12:22:36;;;;;;;6.38;3.00;;;9.60;99.90;;;;;;5033136;28;20654;-53
2023/03/26 12:25:15;;;;;;;2.45;1.95;;;9.70;99.90;;;;;;5031628;28;20170;-54
2023/03/26 12:28:03;;;;;;;3.47;1.70;;;9.60;99.90;;;;;;5032912;28;20171;-54
2023/03/26 12:30:35;;;;;;;3.42;2.10;;;9.60;99.90;;;;;;5032588;28;20199;-44
2023/03/26 12:33:15;;;;;;;2.28;1.25;;;9.60;99.90;;;;;;5032889;28;20256;-53
2023/03/26 12:35:41;;;;;;;5.22;2.35;;;9.70;99.90;;;;;;5032803;28;20201;-54
2023/03/26 12:38:23;;;;;;;4.65;2.03;;;9.70;99.90;;;;;;5032812;28;20167;-54
2023/03/26 12:41:10;;;;;;;6.25;2.05;;;9.90;99.90;;;;;;5030050;28;20316;-54
2023/03/26 12:43:42;;;;;;;4.50;1.88;;;10.00;99.90;;;;;;5031896;28;20245;-45
2023/03/26 12:46:22;;;;;;;3.80;1.75;;;10.20;99.90;;;;;;5031686;28;20210;-43
2023/03/26 12:48:52;;;;;;;3.03;1.50;;;10.30;99.90;;;;;;5031816;28;20207;-51
2023/03/26 12:51:35;;;;;;;3.30;1.67;;;10.30;99.90;;;;;;5030780;28;20171;-45
2023/03/26 12:54:34;;;;;;;2.85;1.77;;;10.40;99.90;;;;;;5031565;28;20172;-43
2023/03/26 12:57:21;;;;;;;2.65;1.58;;;10.40;99.90;;;;;;5031456;28;20171;-43
2023/03/26 13:00:15;;;;;;;4.45;1.60;;;10.30;99.90;;;;;;5031758;28;20712;-44
2023/03/26 13:03:06;;;;;;;3.53;1.60;;;10.30;99.90;;;;;;5031666;28;20159;-43
2023/03/26 13:05:54;;;;;;;2.00;1.50;;;10.30;99.90;;;;;;5031807;28;20163;-43
2023/03/26 13:08:42;;;;;;;2.05;1.40;;;10.20;99.90;;;;;;5031679;28;20219;-45
2023/03/26 13:11:19;;;;;;;2.20;1.77;;;10.30;99.90;;;;;;5031325;28;20187;-44
2023/03/26 13:13:52;;;;;;;1.70;1.15;;;10.40;99.90;;;;;;5031828;28;20654;-43
2023/03/26 13:16:21;;;;;;;1.65;1.20;;;10.20;99.90;;;;;;5031512;28;20170;-43
2023/03/26 13:19:20;;;;;;;1.55;1.20;;;10.10;99.90;;;;;;5031919;28;20179;-43
2023/03/26 13:21:46;;;;;;;3.80;1.42;;;10.00;99.90;;;;;;5031013;28;20210;-46
2023/03/26 13:24:22;;;;;;;1.60;1.20;;;10.00;99.90;;;;;;5031593;28;20647;-48
2023/03/26 13:26:57;;;;;;;2.55;1.35;;;10.10;99.90;;;;;;5031737;28;20171;-44
2023/03/26 13:29:48;;;;;;;1.58;1.35;;;10.00;99.90;;;;;;5031396;28;20700;-46
2023/03/26 13:32:45;;;;;;;1.73;1.63;;;10.00;99.90;;;;;;5031496;28;20167;-45
2023/03/26 13:35:20;;;;;;;1.88;1.65;;;10.00;99.90;;;;;;5031575;28;20196;-51